Time;durP1;ratioP1;P1;durP2;ratioP2;P2;SDS_P1;SDS_P2;PMS_P1;PMS_P2;Temp;Humidity;BMP_temperature;BMP_pressure;BME280_temperature;BME280_humidity;BME280_pressure;Samples;Min_cycle;Max_cycle;Signal;HPM_P1;HPM_P2
2024/04/14 00:01:43;;;;;;;5.00;2.90;;;13.50;1.00;;;;;;5460007;26;20944;-64
2024/04/14 00:04:10;;;;;;;3.33;2.80;;;13.50;1.00;;;;;;5464966;26;20244;-65
2024/04/14 00:06:41;;;;;;;6.57;3.10;;;13.40;1.00;;;;;;5456524;26;20331;-65
2024/04/14 00:09:10;;;;;;;4.03;3.17;;;13.40;1.00;;;;;;5451126;26;20586;-65
2024/04/14 00:11:40;;;;;;;9.80;3.33;;;13.40;1.00;;;;;;5452959;26;20286;-65
2024/04/14 00:14:07;;;;;;;4.73;3.30;;;13.30;1.30;;;;;;5457404;26;20261;-65
2024/04/14 00:16:40;;;;;;;7.47;3.70;;;13.30;5.90;;;;;;5463421;26;20230;-65
2024/04/14 00:19:08;;;;;;;6.43;3.30;;;13.30;5.20;;;;;;5460274;26;20275;-65
2024/04/14 00:21:39;;;;;;;6.40;3.57;;;13.20;8.10;;;;;;5444704;26;20253;-65
2024/04/14 00:24:06;;;;;;;10.23;4.00;;;13.20;10.20;;;;;;5458722;26;20864;-65
2024/04/14 00:26:36;;;;;;;6.00;3.70;;;13.20;22.70;;;;;;5450404;25;20269;-65
2024/04/14 00:29:04;;;;;;;5.77;3.50;;;13.10;70.20;;;;;;5458882;26;20295;-65
2024/04/14 00:31:34;;;;;;;11.50;4.33;;;13.10;32.80;;;;;;5463123;26;20275;-66
2024/04/14 00:34:04;;;;;;;7.73;4.00;;;13.00;28.10;;;;;;5455462;26;20312;-65
2024/04/14 00:36:37;;;;;;;4.73;3.97;;;13.00;38.00;;;;;;5460123;26;20711;-65
2024/04/14 00:39:05;;;;;;;7.60;3.80;;;12.90;31.40;;;;;;5460314;25;20251;-66
2024/04/14 00:41:35;;;;;;;8.00;4.27;;;12.90;23.70;;;;;;5463525;26;20252;-65
2024/04/14 00:44:02;;;;;;;6.33;4.33;;;12.90;52.20;;;;;;5455439;26;20265;-65
2024/04/14 00:46:33;;;;;;;10.00;4.27;;;12.80;40.20;;;;;;5461263;26;20300;-66
2024/04/14 00:49:02;;;;;;;5.83;4.33;;;12.80;67.60;;;;;;5457750;26;20759;-66
2024/04/14 00:51:36;;;;;;;12.77;4.40;;;12.80;60.90;;;;;;5445334;26;20637;-65
2024/04/14 00:54:05;;;;;;;7.70;4.07;;;12.70;58.40;;;;;;5444462;26;20250;-65
2024/04/14 00:56:35;;;;;;;15.73;4.70;;;12.70;64.40;;;;;;5444921;26;20312;-66
2024/04/14 00:59:04;;;;;;;6.97;4.23;;;12.70;59.50;;;;;;5447605;26;20314;-66
2024/04/14 01:01:36;;;;;;;7.87;4.77;;;12.60;57.90;;;;;;5453125;26;20231;-66
2024/04/14 01:04:03;;;;;;;10.07;4.77;;;12.60;80.10;;;;;;5459813;26;20291;-66
2024/04/14 01:06:37;;;;;;;9.60;4.93;;;12.50;76.90;;;;;;5450896;26;20304;-65
2024/04/14 01:09:05;;;;;;;11.63;5.70;;;12.50;81.20;;;;;;5441197;26;20345;-65
2024/04/14 01:11:35;;;;;;;11.90;4.90;;;12.40;78.60;;;;;;5451096;26;20253;-65
2024/04/14 01:14:03;;;;;;;9.17;5.37;;;12.40;88.60;;;;;;5450447;25;20336;-65
2024/04/14 01:16:36;;;;;;;10.63;5.47;;;12.40;92.20;;;;;;5448715;26;20296;-66
2024/04/14 01:19:04;;;;;;;7.07;4.97;;;12.40;95.00;;;;;;5447965;26;20240;-65
2024/04/14 01:21:37;;;;;;;12.40;5.47;;;12.30;91.70;;;;;;5447368;25;20354;-65
2024/04/14 01:24:05;;;;;;;12.53;5.10;;;12.30;89.40;;;;;;5452098;26;20292;-65
2024/04/14 01:26:38;;;;;;;10.13;5.60;;;12.30;94.80;;;;;;5448944;25;20261;-65
2024/04/14 01:29:06;;;;;;;8.30;5.43;;;12.30;99.90;;;;;;5445163;26;20299;-65
2024/04/14 01:31:36;;;;;;;14.90;6.30;;;12.30;99.90;;;;;;5457745;26;20266;-66
2024/04/14 01:34:04;;;;;;;16.50;5.90;;;12.30;99.90;;;;;;5460451;26;20298;-66
2024/04/14 01:36:34;;;;;;;17.27;5.70;;;12.20;99.90;;;;;;5456359;26;20262;-65
2024/04/14 01:39:01;;;;;;;12.37;6.30;;;12.20;99.90;;;;;;5458326;26;20295;-66
2024/04/14 01:41:31;;;;;;;13.10;6.30;;;12.20;99.90;;;;;;5461601;26;20261;-66
2024/04/14 01:44:02;;;;;;;9.50;6.63;;;12.10;99.90;;;;;;5461429;25;20311;-66
2024/04/14 01:46:32;;;;;;;11.03;6.17;;;12.10;99.90;;;;;;5456532;26;20283;-66
2024/04/14 01:48:59;;;;;;;12.23;6.50;;;12.10;99.90;;;;;;5450777;26;20657;-65
2024/04/14 01:51:29;;;;;;;18.27;6.67;;;12.00;99.90;;;;;;5454875;26;20341;-66
2024/04/14 01:53:57;;;;;;;15.07;6.63;;;12.00;99.90;;;;;;5457280;26;20344;-66
2024/04/14 01:56:27;;;;;;;18.60;7.37;;;12.00;99.90;;;;;;5458316;26;20257;-66
2024/04/14 01:58:55;;;;;;;14.37;6.63;;;11.90;99.90;;;;;;5452120;26;20293;-66
2024/04/14 02:01:28;;;;;;;12.23;6.57;;;11.90;99.90;;;;;;5461814;26;20775;-66
2024/04/14 02:03:56;;;;;;;18.70;7.53;;;11.90;99.90;;;;;;5455160;26;20316;-65
2024/04/14 02:06:26;;;;;;;16.47;7.23;;;11.90;99.90;;;;;;5455357;26;20819;-66
2024/04/14 02:08:54;;;;;;;14.53;7.60;;;11.90;99.90;;;;;;5459526;26;20287;-65
2024/04/14 02:11:24;;;;;;;18.03;7.73;;;11.80;99.90;;;;;;5454754;26;20253;-65
2024/04/14 02:13:52;;;;;;;17.67;7.07;;;11.80;99.90;;;;;;5462529;25;20339;-65
2024/04/14 02:16:22;;;;;;;17.10;7.63;;;11.80;99.90;;;;;;5461516;26;20249;-66
2024/04/14 02:18:57;;;;;;;16.00;7.90;;;11.70;99.90;;;;;;5453651;25;20261;-66
2024/04/14 02:21:28;;;;;;;16.70;7.57;;;11.70;99.90;;;;;;5451089;26;20264;-66
2024/04/14 02:23:56;;;;;;;19.00;8.20;;;11.70;99.90;;;;;;5453765;25;20318;-66
2024/04/14 02:26:26;;;;;;;14.97;7.80;;;11.60;99.90;;;;;;5459156;26;20259;-65
2024/04/14 02:28:54;;;;;;;16.30;8.40;;;11.60;99.90;;;;;;5451302;26;20731;-65
2024/04/14 02:31:24;;;;;;;16.97;8.27;;;11.60;99.90;;;;;;5461814;26;20268;-66
2024/04/14 02:33:57;;;;;;;18.53;8.10;;;11.60;99.90;;;;;;5455545;26;20362;-65
2024/04/14 02:36:27;;;;;;;27.73;9.27;;;11.60;99.90;;;;;;5453211;26;20306;-65
2024/04/14 02:38:57;;;;;;;18.07;8.30;;;11.60;99.90;;;;;;5451233;26;20265;-65
2024/04/14 02:41:24;;;;;;;24.50;8.83;;;11.60;99.90;;;;;;5445647;26;20309;-65
2024/04/14 02:43:55;;;;;;;16.03;8.60;;;11.50;99.90;;;;;;5457049;26;20268;-66
2024/04/14 02:46:23;;;;;;;26.23;8.93;;;11.60;99.90;;;;;;5463674;26;20862;-65
2024/04/14 02:48:54;;;;;;;18.47;9.00;;;11.50;99.90;;;;;;5454722;26;20283;-66
2024/04/14 02:51:25;;;;;;;23.50;9.27;;;11.50;99.90;;;;;;5454659;26;20269;-66
2024/04/14 02:53:55;;;;;;;23.93;9.37;;;11.50;99.90;;;;;;5445565;26;20265;-65
2024/04/14 02:56:23;;;;;;;29.30;9.57;;;11.50;99.90;;;;;;5457643;25;20257;-65
2024/04/14 02:58:53;;;;;;;22.43;9.50;;;11.50;99.90;;;;;;5459229;26;20237;-65
2024/04/14 03:01:20;;;;;;;24.07;10.20;;;11.40;99.90;;;;;;5455807;26;20676;-66
2024/04/14 03:03:50;;;;;;;23.20;9.73;;;11.40;99.90;;;;;;5455105;26;20268;-66
2024/04/14 03:06:18;;;;;;;21.43;9.40;;;11.30;99.90;;;;;;5461181;26;20328;-66
2024/04/14 03:08:52;;;;;;;23.23;10.07;;;11.30;99.90;;;;;;5460972;25;20254;-66
2024/04/14 03:11:19;;;;;;;23.27;9.73;;;11.30;99.90;;;;;;5447248;26;20253;-66
2024/04/14 03:13:51;;;;;;;26.20;10.67;;;11.20;99.90;;;;;;5464144;25;20707;-65
2024/04/14 03:16:19;;;;;;;22.13;10.37;;;11.20;99.90;;;;;;5457751;26;20244;-66
2024/04/14 03:18:49;;;;;;;24.20;10.57;;;11.10;99.90;;;;;;5457112;25;20292;-65
2024/04/14 03:21:17;;;;;;;20.63;10.80;;;11.20;99.90;;;;;;5457584;26;20261;-66
2024/04/14 03:23:55;;;;;;;19.90;11.00;;;11.20;99.90;;;;;;5448406;26;20317;-66
2024/04/14 03:26:22;;;;;;;23.03;10.47;;;11.20;99.90;;;;;;5455715;26;20621;-65
2024/04/14 03:28:52;;;;;;;23.87;9.50;;;11.20;99.90;;;;;;5448157;26;20359;-66
2024/04/14 03:31:20;;;;;;;21.87;10.53;;;11.10;99.90;;;;;;5466928;26;20241;-65
2024/04/14 03:33:50;;;;;;;25.90;10.67;;;11.10;99.90;;;;;;5457531;26;20258;-66
2024/04/14 03:36:18;;;;;;;24.30;10.33;;;11.10;99.90;;;;;;5461635;26;20280;-66
2024/04/14 03:38:48;;;;;;;21.73;11.07;;;11.10;99.90;;;;;;5457841;26;20260;-65
2024/04/14 03:41:22;;;;;;;29.83;11.63;;;11.10;99.90;;;;;;5454725;25;20317;-66
2024/04/14 03:43:52;;;;;;;21.30;10.73;;;11.10;99.90;;;;;;5456939;25;20233;-66
2024/04/14 03:46:22;;;;;;;28.17;11.37;;;11.10;99.90;;;;;;5456915;26;20744;-65
2024/04/14 03:48:50;;;;;;;24.43;10.27;;;11.10;99.90;;;;;;5452457;25;20782;-66
2024/04/14 03:51:20;;;;;;;23.87;10.20;;;11.10;99.90;;;;;;5460576;26;20989;-66
2024/04/14 03:53:47;;;;;;;17.90;9.93;;;11.20;99.90;;;;;;5449650;26;20777;-65
2024/04/14 03:56:22;;;;;;;21.87;10.43;;;11.20;99.90;;;;;;5454177;26;20645;-66
2024/04/14 03:58:49;;;;;;;22.20;11.00;;;11.20;99.90;;;;;;5450014;26;20234;-66
2024/04/14 04:01:20;;;;;;;22.17;10.17;;;11.30;99.90;;;;;;5442626;26;20268;-66
2024/04/14 04:03:50;;;;;;;23.53;10.93;;;11.30;99.90;;;;;;5445276;26;20262;-66
2024/04/14 04:06:20;;;;;;;21.90;10.70;;;11.20;99.90;;;;;;5454416;25;20283;-66
2024/04/14 04:08:48;;;;;;;23.77;10.33;;;11.20;99.90;;;;;;5454115;26;20253;-66
2024/04/14 04:11:21;;;;;;;23.77;11.57;;;11.30;99.90;;;;;;5446781;26;20257;-66
2024/04/14 04:13:49;;;;;;;23.83;10.80;;;11.30;99.90;;;;;;5452269;26;20240;-66
2024/04/14 04:16:19;;;;;;;18.83;10.33;;;11.30;99.90;;;;;;5451434;26;20260;-66
2024/04/14 04:18:46;;;;;;;24.47;11.23;;;11.30;99.90;;;;;;5464596;26;20288;-66
2024/04/14 04:21:16;;;;;;;29.17;12.07;;;11.30;99.90;;;;;;5449131;26;20355;-66
2024/04/14 04:23:44;;;;;;;29.17;11.60;;;11.30;99.90;;;;;;5446078;26;20290;-66
2024/04/14 04:26:14;;;;;;;27.03;11.00;;;11.30;99.90;;;;;;5458632;26;20260;-66
2024/04/14 04:28:44;;;;;;;27.17;11.70;;;11.30;99.90;;;;;;5441468;26;20260;-66
2024/04/14 04:31:15;;;;;;;22.57;10.93;;;11.30;99.90;;;;;;5441629;26;20300;-66
2024/04/14 04:33:43;;;;;;;24.83;11.20;;;11.40;99.90;;;;;;5443150;26;20288;-66
2024/04/14 04:36:17;;;;;;;25.73;11.23;;;11.40;99.90;;;;;;5454736;26;20260;-66
2024/04/14 04:38:45;;;;;;;23.60;10.97;;;11.40;99.90;;;;;;5456273;25;20369;-66
2024/04/14 04:41:15;;;;;;;23.57;9.73;;;11.40;99.90;;;;;;5453078;26;20731;-66
2024/04/14 04:43:45;;;;;;;24.20;11.57;;;11.40;99.90;;;;;;5455956;26;20241;-66
2024/04/14 04:46:16;;;;;;;24.20;10.83;;;11.50;99.90;;;;;;5462517;26;20575;-66
2024/04/14 04:48:47;;;;;;;34.67;11.53;;;11.40;99.90;;;;;;5460545;25;20292;-66
2024/04/14 04:51:18;;;;;;;22.63;10.60;;;11.40;99.90;;;;;;5454304;26;20260;-66
2024/04/14 04:53:45;;;;;;;33.13;12.03;;;11.40;99.90;;;;;;5452795;26;20291;-65
2024/04/14 04:56:15;;;;;;;21.60;11.33;;;11.40;99.90;;;;;;5452956;26;20253;-66
2024/04/14 04:58:49;;;;;;;28.10;11.50;;;11.30;99.90;;;;;;5445514;25;20283;-65
2024/04/14 05:01:19;;;;;;;25.03;11.17;;;11.30;99.90;;;;;;5451640;26;20298;-66
2024/04/14 05:03:47;;;;;;;21.10;11.23;;;11.30;99.90;;;;;;5449781;26;20249;-66
2024/04/14 05:06:17;;;;;;;24.80;10.73;;;11.30;99.90;;;;;;5453889;25;20244;-66
2024/04/14 05:08:46;;;;;;;23.03;10.47;;;11.30;99.90;;;;;;5452484;26;20270;-66
2024/04/14 05:11:16;;;;;;;25.77;10.77;;;11.40;99.90;;;;;;5454064;25;21127;-66
2024/04/14 05:13:44;;;;;;;22.57;11.57;;;11.40;99.90;;;;;;5449095;26;20271;-66
2024/04/14 05:16:17;;;;;;;20.47;10.43;;;11.40;99.90;;;;;;5452441;26;20284;-66
2024/04/14 05:18:45;;;;;;;22.53;10.93;;;11.50;99.90;;;;;;5449794;26;20279;-66
2024/04/14 05:21:15;;;;;;;24.97;11.30;;;11.50;99.90;;;;;;5449386;26;20361;-66
2024/04/14 05:23:42;;;;;;;24.87;11.20;;;11.50;99.90;;;;;;5443248;26;20252;-66
2024/04/14 05:26:13;;;;;;;22.90;10.50;;;11.60;99.90;;;;;;5450430;26;20340;-66
2024/04/14 05:28:40;;;;;;;26.67;11.37;;;11.60;99.90;;;;;;5456201;26;20229;-65
2024/04/14 05:31:10;;;;;;;23.83;10.70;;;11.60;99.90;;;;;;5456227;26;20259;-66
2024/04/14 05:33:40;;;;;;;21.70;10.40;;;11.60;99.90;;;;;;5446129;26;20291;-66
2024/04/14 05:36:11;;;;;;;19.27;11.10;;;11.60;99.90;;;;;;5449554;26;20288;-66
2024/04/14 05:38:39;;;;;;;22.20;10.83;;;11.70;99.90;;;;;;5454689;26;20755;-66
2024/04/14 05:41:09;;;;;;;24.83;11.47;;;11.70;99.90;;;;;;5457863;26;20738;-66
2024/04/14 05:43:37;;;;;;;24.10;10.80;;;11.70;99.90;;;;;;5451517;26;20237;-66
2024/04/14 05:46:08;;;;;;;25.50;11.53;;;11.70;99.90;;;;;;5454920;26;20304;-66
2024/04/14 05:48:36;;;;;;;24.87;11.00;;;11.70;99.90;;;;;;5459929;25;20252;-66
2024/04/14 05:51:09;;;;;;;29.37;11.07;;;11.80;99.90;;;;;;5455186;25;20304;-66
2024/04/14 05:53:36;;;;;;;21.87;10.67;;;11.80;99.90;;;;;;5456740;25;20245;-66
2024/04/14 05:56:07;;;;;;;24.70;11.30;;;11.90;99.90;;;;;;5454988;26;20261;-66
2024/04/14 05:58:35;;;;;;;19.90;10.53;;;11.90;99.90;;;;;;5452110;26;20351;-66
2024/04/14 06:01:08;;;;;;;28.27;11.77;;;12.00;99.90;;;;;;5450706;26;20278;-66
2024/04/14 06:03:36;;;;;;;24.83;11.57;;;12.10;99.90;;;;;;5447529;26;20256;-66
2024/04/14 06:06:09;;;;;;;29.80;11.00;;;12.10;99.90;;;;;;5448542;26;20293;-66
2024/04/14 06:08:37;;;;;;;20.50;10.10;;;12.20;99.90;;;;;;5478758;26;20320;-66
2024/04/14 06:11:08;;;;;;;24.40;11.20;;;12.20;99.90;;;;;;5449223;26;20272;-65
2024/04/14 06:13:35;;;;;;;20.63;11.20;;;12.30;99.90;;;;;;5452360;26;20271;-65
2024/04/14 06:16:06;;;;;;;24.07;10.50;;;12.30;99.90;;;;;;5446390;26;20811;-66
2024/04/14 06:18:33;;;;;;;21.10;10.97;;;12.40;99.90;;;;;;5446723;26;20249;-66
2024/04/14 06:21:05;;;;;;;19.60;10.57;;;12.40;99.90;;;;;;5437075;26;20314;-66
2024/04/14 06:23:35;;;;;;;23.67;10.47;;;12.50;99.90;;;;;;5442754;26;20369;-66
2024/04/14 06:26:05;;;;;;;26.90;10.47;;;12.70;99.90;;;;;;5449381;26;20253;-66
2024/04/14 06:28:33;;;;;;;23.53;10.50;;;12.80;99.90;;;;;;5451137;26;20645;-66
2024/04/14 06:31:04;;;;;;;22.33;11.57;;;12.80;99.90;;;;;;5460551;26;20253;-66
2024/04/14 06:33:31;;;;;;;21.13;10.07;;;12.80;99.90;;;;;;5450835;26;20342;-66
2024/04/14 06:36:02;;;;;;;21.90;10.47;;;12.90;99.90;;;;;;5447296;25;20257;-66
2024/04/14 06:38:30;;;;;;;19.70;10.00;;;12.90;99.90;;;;;;5451730;26;20292;-66
2024/04/14 06:41:03;;;;;;;21.40;9.53;;;13.00;99.90;;;;;;5449111;26;20241;-66
2024/04/14 06:43:30;;;;;;;23.33;8.97;;;13.00;99.90;;;;;;5456966;26;20266;-66
2024/04/14 06:46:00;;;;;;;21.43;9.70;;;13.00;99.90;;;;;;5457712;26;20262;-66
2024/04/14 06:48:29;;;;;;;12.83;8.10;;;13.00;99.90;;;;;;5455822;26;20284;-66
2024/04/14 06:50:59;;;;;;;23.70;8.60;;;13.10;99.90;;;;;;5456875;26;20364;-66
2024/04/14 06:53:27;;;;;;;22.07;11.63;;;13.20;99.90;;;;;;5453375;25;20302;-66
2024/04/14 06:55:59;;;;;;;16.13;8.73;;;13.30;99.90;;;;;;5444033;26;20280;-66
2024/04/14 06:58:30;;;;;;;15.77;6.60;;;13.50;99.90;;;;;;5445573;26;20235;-66
2024/04/14 07:01:00;;;;;;;13.47;6.80;;;13.60;99.90;;;;;;5458447;26;20309;-66
2024/04/14 07:03:28;;;;;;;15.50;7.27;;;13.70;99.90;;;;;;5447687;25;20248;-66
2024/04/14 07:06:00;;;;;;;21.17;7.40;;;13.70;99.90;;;;;;5457136;26;20261;-66
2024/04/14 07:08:28;;;;;;;11.47;6.37;;;13.90;99.90;;;;;;5453573;26;20786;-66
2024/04/14 07:10:59;;;;;;;8.90;6.07;;;14.10;99.90;;;;;;5452411;26;20230;-66
2024/04/14 07:13:29;;;;;;;16.50;6.00;;;14.30;44.40;;;;;;5445155;26;20326;-66
2024/04/14 07:15:59;;;;;;;15.80;6.27;;;14.50;1.00;;;;;;5451661;26;20252;-66
2024/04/14 07:18:27;;;;;;;11.30;5.30;;;14.50;1.00;;;;;;5450851;26;20257;-66
2024/04/14 07:20:57;;;;;;;14.27;5.77;;;14.60;1.00;;;;;;5443140;26;21505;-66
2024/04/14 07:23:25;;;;;;;12.63;5.43;;;14.80;1.00;;;;;;5447157;26;20293;-66
2024/04/14 07:25:55;;;;;;;9.27;4.83;;;14.90;1.00;;;;;;5450149;26;20238;-66
2024/04/14 07:28:22;;;;;;;14.77;5.07;;;15.00;1.00;;;;;;5442216;26;20643;-66
2024/04/14 07:30:55;;;;;;;12.33;4.87;;;15.10;1.00;;;;;;5455629;26;20597;-66
2024/04/14 07:33:23;;;;;;;11.37;4.60;;;15.20;1.00;;;;;;5458723;26;20301;-66
2024/04/14 07:35:53;;;;;;;9.73;4.20;;;15.20;1.00;;;;;;5455893;26;20913;-66
2024/04/14 07:38:20;;;;;;;11.17;3.90;;;15.30;1.00;;;;;;5448523;26;20307;-66
2024/04/14 07:40:50;;;;;;;6.93;3.60;;;15.50;1.00;;;;;;5452500;26;20237;-66
2024/04/14 07:43:18;;;;;;;7.93;3.50;;;15.60;99.90;;;;;;5446619;26;20782;-66
2024/04/14 07:45:48;;;;;;;8.10;3.03;;;15.70;99.90;;;;;;5452956;26;20266;-66
2024/04/14 07:48:18;;;;;;;10.30;2.80;;;15.70;1.00;;;;;;5462017;25;20259;-66
2024/04/14 07:50:48;;;;;;;9.70;3.17;;;15.80;99.90;;;;;;5455528;26;20720;-66
2024/04/14 07:53:16;;;;;;;4.53;2.70;;;15.90;1.00;;;;;;5460760;26;20781;-66
2024/04/14 07:55:46;;;;;;;9.83;3.13;;;15.90;1.00;;;;;;5448645;26;20292;-66
2024/04/14 07:58:13;;;;;;;6.23;2.67;;;16.00;1.00;;;;;;5450376;26;20276;-67
2024/04/14 08:00:43;;;;;;;5.47;2.50;;;16.00;1.00;;;;;;5448046;26;20262;-66
2024/04/14 08:03:11;;;;;;;10.97;3.27;;;16.00;1.00;;;;;;5451039;26;20250;-66
2024/04/14 08:05:44;;;;;;;6.17;2.80;;;15.90;99.90;;;;;;5446636;26;20296;-66
2024/04/14 08:08:11;;;;;;;8.63;2.53;;;15.80;99.90;;;;;;5457280;26;20750;-66
2024/04/14 08:10:41;;;;;;;6.20;2.27;;;15.70;1.00;;;;;;5458417;26;20248;-66
2024/04/14 08:13:09;;;;;;;5.90;2.30;;;15.70;1.00;;;;;;5467364;26;20309;-66
2024/04/14 08:15:42;;;;;;;6.13;2.07;;;15.70;99.90;;;;;;5456518;26;20255;-66
2024/04/14 08:18:10;;;;;;;3.13;1.70;;;15.70;99.90;;;;;;5462919;26;20586;-66
2024/04/14 08:20:42;;;;;;;3.13;2.00;;;16.00;99.90;;;;;;5450831;26;20302;-66
2024/04/14 08:23:15;;;;;;;6.83;1.93;;;16.20;1.00;;;;;;5457587;26;20252;-66
2024/04/14 08:25:45;;;;;;;10.57;2.70;;;16.40;99.90;;;;;;5449460;26;20250;-66
2024/04/14 08:28:12;;;;;;;6.10;1.93;;;16.60;1.00;;;;;;5449527;26;20279;-66
2024/04/14 08:30:42;;;;;;;5.53;1.80;;;16.70;1.00;;;;;;5458794;25;20365;-66
2024/04/14 08:33:10;;;;;;;4.47;1.90;;;16.90;99.90;;;;;;5450778;25;20587;-66
2024/04/14 08:35:43;;;;;;;5.23;1.70;;;16.90;1.00;;;;;;5455047;26;20256;-66
2024/04/14 08:38:10;;;;;;;5.33;1.90;;;16.90;1.00;;;;;;5451039;26;20257;-66
2024/04/14 08:40:41;;;;;;;9.60;2.30;;;17.10;99.90;;;;;;5458585;26;20631;-66
2024/04/14 08:43:08;;;;;;;5.57;2.00;;;17.30;1.00;;;;;;5462785;26;20229;-66
2024/04/14 08:45:39;;;;;;;7.37;2.27;;;17.40;99.90;;;;;;5458750;26;20357;-66
2024/04/14 08:48:07;;;;;;;5.93;2.13;;;17.60;1.00;;;;;;5456636;26;20840;-66
2024/04/14 08:50:40;;;;;;;3.63;2.00;;;17.80;2.20;;;;;;5455432;26;20584;-66
2024/04/14 08:53:12;;;;;;;5.97;2.13;;;18.10;99.90;;;;;;5454022;26;20321;-66
2024/04/14 08:55:42;;;;;;;6.87;2.17;;;18.10;99.90;;;;;;5455282;26;20288;-66
2024/04/14 08:58:12;;;;;;;7.00;2.20;;;18.10;99.90;;;;;;5449126;26;20246;-66
2024/04/14 09:00:44;;;;;;;6.80;2.37;;;17.90;1.00;;;;;;5446279;25;20743;-67
2024/04/14 09:03:12;;;;;;;4.73;2.00;;;18.00;1.00;;;;;;5460652;25;20260;-66
2024/04/14 09:05:45;;;;;;;7.33;2.10;;;18.00;1.00;;;;;;5450814;26;20248;-66
2024/04/14 09:08:15;;;;;;;5.53;2.27;;;18.00;1.00;;;;;;5451413;26;20252;-66
2024/04/14 09:10:46;;;;;;;9.40;2.80;;;18.20;1.00;;;;;;5451263;25;20237;-66
2024/04/14 09:13:13;;;;;;;6.60;2.47;;;18.30;1.00;;;;;;5450876;26;20233;-66
2024/04/14 09:15:46;;;;;;;8.23;2.80;;;18.40;1.00;;;;;;5435489;26;20299;-67
2024/04/14 09:18:14;;;;;;;7.87;2.93;;;18.50;99.90;;;;;;5439088;26;20291;-66
2024/04/14 09:20:45;;;;;;;6.80;2.50;;;18.60;1.00;;;;;;5440445;26;20743;-66
2024/04/14 09:23:15;;;;;;;6.03;2.93;;;18.80;1.00;;;;;;5443642;26;20305;-66
2024/04/14 09:25:46;;;;;;;8.13;3.07;;;18.90;1.00;;;;;;5457986;25;20233;-66
2024/04/14 09:28:14;;;;;;;7.57;2.83;;;18.50;1.00;;;;;;5448701;26;20245;-66
2024/04/14 09:30:44;;;;;;;10.93;3.37;;;18.50;1.00;;;;;;5445674;26;20260;-66
2024/04/14 09:33:12;;;;;;;10.43;3.43;;;18.50;1.00;;;;;;5437277;25;20249;-66
2024/04/14 09:35:44;;;;;;;11.07;3.00;;;18.50;1.00;;;;;;5443716;25;20293;-66
2024/04/14 09:38:14;;;;;;;9.97;2.53;;;18.60;1.00;;;;;;5457201;25;20276;-66
2024/04/14 09:40:47;;;;;;;6.43;2.70;;;18.70;99.90;;;;;;5442548;26;20347;-66
2024/04/14 09:43:18;;;;;;;8.83;2.93;;;18.80;99.90;;;;;;5450855;26;20719;-65
2024/04/14 09:45:49;;;;;;;6.13;2.87;;;19.10;99.90;;;;;;5449133;25;20338;-66
2024/04/14 09:48:18;;;;;;;9.60;2.80;;;19.40;99.90;;;;;;5446766;26;20289;-66
2024/04/14 09:50:50;;;;;;;8.33;2.60;;;19.80;99.90;;;;;;5452490;25;20665;-66
2024/04/14 09:53:21;;;;;;;6.40;2.40;;;19.80;1.00;;;;;;5442598;26;20265;-66
2024/04/14 09:55:57;;;;;;;6.53;2.50;;;19.70;1.00;;;;;;5446380;26;20715;-66
2024/04/14 09:58:24;;;;;;;7.47;2.83;;;19.60;1.00;;;;;;5458063;26;20241;-66
2024/04/14 10:00:56;;;;;;;7.33;2.40;;;19.10;1.00;;;;;;5452452;26;20262;-66
2024/04/14 10:03:26;;;;;;;4.20;2.30;;;19.10;1.00;;;;;;5459621;25;20271;-66
2024/04/14 10:05:58;;;;;;;5.07;2.03;;;19.30;1.00;;;;;;5447851;26;20324;-66
2024/04/14 10:08:31;;;;;;;3.57;1.83;;;19.20;1.00;;;;;;5457299;26;20626;-66
2024/04/14 10:11:04;;;;;;;7.43;2.20;;;19.20;1.00;;;;;;5455736;26;20264;-66
2024/04/14 10:13:47;;;;;;;4.97;2.00;;;19.00;1.00;;;;;;5437449;26;20237;-66
2024/04/14 10:16:19;;;;;;;4.53;2.13;;;18.90;1.00;;;;;;5449024;26;20261;-66
2024/04/14 10:18:48;;;;;;;6.47;2.90;;;18.80;1.00;;;;;;5467624;26;20261;-65
2024/04/14 10:21:21;;;;;;;7.53;2.60;;;19.10;1.00;;;;;;5444488;26;20256;-65
2024/04/14 10:23:52;;;;;;;7.27;3.07;;;19.70;1.00;;;;;;5462810;26;20247;-65
2024/04/14 10:26:26;;;;;;;5.80;2.57;;;20.20;1.00;;;;;;5452287;25;20294;-65
2024/04/14 10:28:55;;;;;;;3.03;2.13;;;20.60;1.00;;;;;;5444036;25;20242;-65
2024/04/14 10:31:29;;;;;;;7.53;2.17;;;20.80;1.00;;;;;;5446372;26;20758;-65
2024/04/14 10:34:04;;;;;;;5.07;1.97;;;21.40;99.90;;;;;;5452333;26;20254;-66
2024/04/14 10:36:35;;;;;;;6.07;2.30;;;22.10;99.90;;;;;;5442891;26;20293;-65
2024/04/14 10:39:04;;;;;;;2.33;1.80;;;22.10;99.90;;;;;;5456146;26;20292;-65
2024/04/14 10:41:37;;;;;;;6.03;2.30;;;21.60;99.90;;;;;;5449936;26;20958;-65
2024/04/14 10:44:14;;;;;;;3.90;1.73;;;21.00;99.90;;;;;;5447624;26;20253;-66
2024/04/14 10:46:45;;;;;;;5.67;2.10;;;20.50;99.90;;;;;;5467933;26;23031;-65
2024/04/14 10:49:14;;;;;;;4.87;2.20;;;20.10;99.90;;;;;;5450257;26;20248;-66
2024/04/14 10:51:44;;;;;;;4.40;2.10;;;20.10;99.90;;;;;;5445896;26;20346;-66
2024/04/14 10:54:12;;;;;;;4.53;1.83;;;20.60;99.90;;;;;;5446091;26;20355;-66
2024/04/14 10:56:47;;;;;;;8.37;2.10;;;21.00;99.90;;;;;;5446791;26;20330;-65
2024/04/14 10:59:15;;;;;;;5.07;2.20;;;21.30;99.90;;;;;;5451408;25;20300;-66
2024/04/14 11:01:46;;;;;;;4.43;2.10;;;21.60;99.90;;;;;;5448164;26;20229;-66
2024/04/14 11:04:16;;;;;;;4.43;2.10;;;21.50;99.90;;;;;;5453724;26;20229;-65
2024/04/14 11:06:45;;;;;;;4.87;2.07;;;21.30;98.40;;;;;;5448575;26;20280;-65
2024/04/14 11:09:16;;;;;;;5.97;2.10;;;20.90;99.90;;;;;;5475495;26;20297;-66
2024/04/14 11:11:46;;;;;;;3.70;2.10;;;20.50;99.90;;;;;;5453229;26;20608;-65
2024/04/14 11:14:20;;;;;;;4.90;1.93;;;20.10;99.90;;;;;;5448915;26;20242;-65
2024/04/14 11:16:48;;;;;;;6.63;2.33;;;20.40;99.90;;;;;;5446501;25;20250;-65
2024/04/14 11:19:19;;;;;;;5.00;2.00;;;21.20;99.90;;;;;;5456152;26;20663;-66
2024/04/14 11:21:47;;;;;;;6.57;2.20;;;21.40;99.90;;;;;;5445322;26;20345;-64
2024/04/14 11:24:17;;;;;;;5.17;2.40;;;21.70;99.90;;;;;;5443631;26;20300;-66
2024/04/14 11:26:47;;;;;;;2.47;1.60;;;21.90;99.90;;;;;;5450162;25;20264;-66
2024/04/14 11:29:19;;;;;;;9.40;2.10;;;21.80;90.10;;;;;;5455878;25;20252;-65
2024/04/14 11:31:46;;;;;;;4.13;2.00;;;21.70;99.90;;;;;;5448315;25;20295;-65
2024/04/14 11:34:20;;;;;;;11.07;2.27;;;21.20;99.90;;;;;;5448520;26;20269;-66
2024/04/14 11:36:48;;;;;;;5.50;1.97;;;20.80;99.90;;;;;;5449764;26;20260;-66
2024/04/14 11:39:20;;;;;;;3.27;1.67;;;20.70;99.90;;;;;;5450783;26;20298;-66
2024/04/14 11:41:50;;;;;;;4.30;2.37;;;21.60;99.90;;;;;;5454760;26;20766;-66
2024/04/14 11:44:21;;;;;;;5.20;2.23;;;22.80;16.30;;;;;;5462193;26;20304;-66
2024/04/14 11:46:51;;;;;;;5.93;2.20;;;23.70;1.00;;;;;;5451799;26;20229;-66
2024/04/14 11:49:22;;;;;;;3.30;2.00;;;24.60;1.00;;;;;;5456095;26;20240;-66
2024/04/14 11:51:50;;;;;;;6.90;2.33;;;24.90;1.00;;;;;;5457150;26;20256;-66
2024/04/14 11:54:20;;;;;;;2.80;2.13;;;25.00;1.00;;;;;;5455120;26;20257;-66
2024/04/14 11:56:52;;;;;;;8.27;2.27;;;24.70;1.00;;;;;;5453769;26;20299;-66
2024/04/14 11:59:23;;;;;;;2.47;1.97;;;24.00;1.00;;;;;;5444775;26;20245;-66
2024/04/14 12:01:50;;;;;;;2.80;2.00;;;23.00;1.00;;;;;;5457719;26;20224;-66
2024/04/14 12:04:20;;;;;;;5.13;2.20;;;22.20;1.00;;;;;;5446968;26;20726;-66
2024/04/14 12:06:48;;;;;;;5.83;2.50;;;22.80;1.00;;;;;;5450103;26;20640;-66
2024/04/14 12:09:19;;;;;;;4.97;2.40;;;23.70;1.00;;;;;;5456880;25;20263;-66
2024/04/14 12:11:46;;;;;;;4.00;2.33;;;24.50;1.00;;;;;;5453901;26;20329;-66
2024/04/14 12:14:19;;;;;;;3.40;2.10;;;25.10;1.00;;;;;;5449296;26;20283;-66
2024/04/14 12:16:47;;;;;;;4.37;2.20;;;25.20;1.00;;;;;;5444673;26;20269;-65
2024/04/14 12:19:18;;;;;;;3.30;2.17;;;25.40;1.00;;;;;;5455064;26;20238;-66
2024/04/14 12:21:45;;;;;;;5.97;2.60;;;25.30;1.00;;;;;;5448042;25;20308;-66
2024/04/14 12:24:17;;;;;;;7.13;2.30;;;25.20;1.00;;;;;;5373530;26;20594;-66
2024/04/14 12:26:44;;;;;;;4.90;2.57;;;24.80;1.00;;;;;;5379562;26;20263;-66
2024/04/14 12:29:14;;;;;;;3.03;2.20;;;24.90;1.00;;;;;;5374426;26;20595;-66
2024/04/14 12:31:49;;;;;;;6.10;2.60;;;24.60;1.00;;;;;;5366527;26;20273;-65
2024/04/14 12:34:19;;;;;;;3.63;2.20;;;23.50;1.00;;;;;;5375819;26;20228;-66
2024/04/14 12:36:46;;;;;;;4.73;2.53;;;22.90;1.00;;;;;;5363568;26;20255;-66
2024/04/14 12:39:17;;;;;;;7.13;2.57;;;22.70;1.00;;;;;;5362215;26;20277;-66
2024/04/14 12:41:56;;;;;;;6.43;2.30;;;22.70;1.00;;;;;;5364515;26;20363;-66
2024/04/14 12:44:26;;;;;;;5.93;2.57;;;22.40;1.00;;;;;;5362519;26;20262;-66
2024/04/14 12:46:57;;;;;;;8.50;2.93;;;22.00;1.00;;;;;;5362995;26;20239;-66
2024/04/14 12:49:27;;;;;;;6.40;2.70;;;21.50;1.00;;;;;;5366511;26;20230;-66
2024/04/14 12:51:57;;;;;;;4.00;2.43;;;21.30;1.00;;;;;;5369660;26;20641;-66
2024/04/14 12:54:28;;;;;;;5.77;2.63;;;21.20;1.00;;;;;;5362674;26;20308;-66
2024/04/14 12:56:56;;;;;;;6.50;2.53;;;21.00;1.00;;;;;;5365070;26;20268;-66